sensor_id;sensor_type;location;lat;lon;timestamp;pressure;altitude;pressure_sealevel;temperature;humidity
45071;BME280;30836;48.906;9.140;2023-04-05T00:00:30;991.96;;;10.39;32.46
45071;BME280;30836;48.906;9.140;2023-04-05T00:01:30;991.96;;;10.39;32.50
45071;BME280;30836;48.906;9.140;2023-04-05T00:02:32;991.96;;;10.39;32.54
45071;BME280;30836;48.906;9.140;2023-04-05T00:03:32;991.96;;;10.39;32.57
45071;BME280;30836;48.906;9.140;2023-04-05T00:04:33;991.98;;;10.39;32.69
45071;BME280;30836;48.906;9.140;2023-04-05T00:05:33;991.96;;;10.40;32.72
45071;BME280;30836;48.906;9.140;2023-04-05T00:06:34;991.95;;;10.40;32.75
45071;BME280;30836;48.906;9.140;2023-04-05T00:07:35;991.93;;;10.41;32.84
45071;BME280;30836;48.906;9.140;2023-04-05T00:08:36;991.95;;;10.40;32.92
45071;BME280;30836;48.906;9.140;2023-04-05T00:09:36;991.93;;;10.39;32.97
45071;BME280;30836;48.906;9.140;2023-04-05T00:10:37;991.91;;;10.38;33.01
45071;BME280;30836;48.906;9.140;2023-04-05T00:11:38;991.93;;;10.37;33.08
45071;BME280;30836;48.906;9.140;2023-04-05T00:12:38;991.91;;;10.35;33.20
45071;BME280;30836;48.906;9.140;2023-04-05T00:13:39;991.91;;;10.34;33.20
45071;BME280;30836;48.906;9.140;2023-04-05T00:14:39;991.85;;;10.34;33.31
45071;BME280;30836;48.906;9.140;2023-04-05T00:15:40;991.83;;;10.33;33.42
45071;BME280;30836;48.906;9.140;2023-04-05T00:16:41;991.83;;;10.33;33.44
45071;BME280;30836;48.906;9.140;2023-04-05T00:17:42;991.81;;;10.32;33.46
45071;BME280;30836;48.906;9.140;2023-04-05T00:18:44;991.77;;;10.32;33.45
45071;BME280;30836;48.906;9.140;2023-04-05T00:19:46;991.75;;;10.33;33.40
45071;BME280;30836;48.906;9.140;2023-04-05T00:20:47;991.75;;;10.32;33.38
45071;BME280;30836;48.906;9.140;2023-04-05T00:21:48;991.75;;;10.30;33.44
45071;BME280;30836;48.906;9.140;2023-04-05T00:22:48;991.75;;;10.28;33.47
45071;BME280;30836;48.906;9.140;2023-04-05T00:23:52;991.77;;;10.27;33.51
45071;BME280;30836;48.906;9.140;2023-04-05T00:24:54;991.73;;;10.26;33.54
45071;BME280;30836;48.906;9.140;2023-04-05T00:25:54;991.73;;;10.25;33.58
45071;BME280;30836;48.906;9.140;2023-04-05T00:26:55;991.73;;;10.23;33.65
45071;BME280;30836;48.906;9.140;2023-04-05T00:27:56;991.71;;;10.22;33.76
45071;BME280;30836;48.906;9.140;2023-04-05T00:28:57;991.71;;;10.21;33.81
45071;BME280;30836;48.906;9.140;2023-04-05T00:29:57;991.67;;;10.20;33.86
45071;BME280;30836;48.906;9.140;2023-04-05T00:30:57;991.65;;;10.19;33.87
45071;BME280;30836;48.906;9.140;2023-04-05T00:31:58;991.65;;;10.17;33.82
45071;BME280;30836;48.906;9.140;2023-04-05T00:32:58;991.63;;;10.17;33.79
45071;BME280;30836;48.906;9.140;2023-04-05T00:33:59;991.63;;;10.16;33.76
45071;BME280;30836;48.906;9.140;2023-04-05T00:34:59;991.65;;;10.15;33.78
45071;BME280;30836;48.906;9.140;2023-04-05T00:37:11;991.63;;;10.13;33.87
45071;BME280;30836;48.906;9.140;2023-04-05T00:38:11;991.63;;;10.11;33.88
45071;BME280;30836;48.906;9.140;2023-04-05T00:39:11;991.63;;;10.11;33.84
45071;BME280;30836;48.906;9.140;2023-04-05T00:40:12;991.61;;;10.09;33.86
45071;BME280;30836;48.906;9.140;2023-04-05T00:41:13;991.59;;;10.07;33.98
45071;BME280;30836;48.906;9.140;2023-04-05T00:42:13;991.59;;;10.06;33.99
45071;BME280;30836;48.906;9.140;2023-04-05T00:43:14;991.57;;;10.05;33.95
45071;BME280;30836;48.906;9.140;2023-04-05T00:44:14;991.57;;;10.05;33.96
45071;BME280;30836;48.906;9.140;2023-04-05T00:45:15;991.57;;;10.05;34.07
45071;BME280;30836;48.906;9.140;2023-04-05T00:46:15;991.57;;;10.03;34.14
45071;BME280;30836;48.906;9.140;2023-04-05T00:47:16;991.57;;;10.02;34.15
45071;BME280;30836;48.906;9.140;2023-04-05T00:48:16;991.53;;;10.01;34.21
45071;BME280;30836;48.906;9.140;2023-04-05T00:49:17;991.53;;;10.01;34.15
45071;BME280;30836;48.906;9.140;2023-04-05T00:50:17;991.49;;;10.00;34.24
45071;BME280;30836;48.906;9.140;2023-04-05T00:51:18;991.49;;;9.98;34.37
45071;BME280;30836;48.906;9.140;2023-04-05T00:52:18;991.49;;;9.96;34.46
45071;BME280;30836;48.906;9.140;2023-04-05T00:53:19;991.46;;;9.93;34.58
45071;BME280;30836;48.906;9.140;2023-04-05T00:54:20;991.46;;;9.91;34.65
45071;BME280;30836;48.906;9.140;2023-04-05T00:55:21;991.46;;;9.90;34.64
45071;BME280;30836;48.906;9.140;2023-04-05T00:56:22;991.44;;;9.89;34.65
45071;BME280;30836;48.906;9.140;2023-04-05T00:57:23;991.42;;;9.89;34.63
45071;BME280;30836;48.906;9.140;2023-04-05T00:58:24;991.42;;;9.89;34.79
45071;BME280;30836;48.906;9.140;2023-04-05T00:59:25;991.44;;;9.90;34.81
45071;BME280;30836;48.906;9.140;2023-04-05T01:00:26;991.44;;;9.91;34.84
45071;BME280;30836;48.906;9.140;2023-04-05T01:01:27;991.42;;;9.92;34.99
45071;BME280;30836;48.906;9.140;2023-04-05T01:03:33;991.38;;;9.93;34.96
45071;BME280;30836;48.906;9.140;2023-04-05T01:04:34;991.38;;;9.93;35.01
45071;BME280;30836;48.906;9.140;2023-04-05T01:07:58;991.36;;;9.92;35.05
45071;BME280;30836;48.906;9.140;2023-04-05T01:10:15;991.36;;;9.92;35.23
45071;BME280;30836;48.906;9.140;2023-04-05T01:11:16;991.34;;;9.91;35.30
45071;BME280;30836;48.906;9.140;2023-04-05T01:12:18;991.34;;;9.89;35.42
45071;BME280;30836;48.906;9.140;2023-04-05T01:13:23;991.34;;;9.91;35.38
45071;BME280;30836;48.906;9.140;2023-04-05T01:14:24;991.30;;;10.00;35.10
45071;BME280;30836;48.906;9.140;2023-04-05T01:15:24;991.30;;;10.16;34.71
45071;BME280;30836;48.906;9.140;2023-04-05T01:16:25;991.28;;;10.32;34.31
45071;BME280;30836;48.906;9.140;2023-04-05T01:17:26;991.28;;;10.46;33.99
45071;BME280;30836;48.906;9.140;2023-04-05T01:18:29;991.26;;;10.58;33.69
45071;BME280;30836;48.906;9.140;2023-04-05T01:19:29;991.22;;;10.68;33.51
45071;BME280;30836;48.906;9.140;2023-04-05T01:20:30;991.24;;;10.76;33.35
45071;BME280;30836;48.906;9.140;2023-04-05T01:23:45;991.26;;;10.90;33.00
45071;BME280;30836;48.906;9.140;2023-04-05T01:29:25;991.26;;;11.04;32.73
45071;BME280;30836;48.906;9.140;2023-04-05T01:30:33;991.24;;;11.06;32.74
45071;BME280;30836;48.906;9.140;2023-04-05T01:32:54;991.26;;;11.08;32.89
45071;BME280;30836;48.906;9.140;2023-04-05T01:34:08;991.22;;;11.09;32.86
45071;BME280;30836;48.906;9.140;2023-04-05T01:37:26;991.18;;;11.11;32.62
45071;BME280;30836;48.906;9.140;2023-04-05T01:38:31;991.16;;;11.11;32.58
45071;BME280;30836;48.906;9.140;2023-04-05T01:39:34;991.14;;;11.12;32.53
45071;BME280;30836;48.906;9.140;2023-04-05T01:40:35;991.16;;;11.11;32.52
45071;BME280;30836;48.906;9.140;2023-04-05T01:41:37;991.16;;;11.10;32.55
45071;BME280;30836;48.906;9.140;2023-04-05T01:42:38;991.14;;;11.09;32.65
45071;BME280;30836;48.906;9.140;2023-04-05T01:43:38;991.14;;;11.08;32.77
45071;BME280;30836;48.906;9.140;2023-04-05T01:44:39;991.14;;;11.07;32.92
45071;BME280;30836;48.906;9.140;2023-04-05T01:45:40;991.16;;;11.06;33.01
45071;BME280;30836;48.906;9.140;2023-04-05T01:46:41;991.16;;;11.05;33.10
45071;BME280;30836;48.906;9.140;2023-04-05T01:47:41;991.14;;;11.05;33.07
45071;BME280;30836;48.906;9.140;2023-04-05T01:48:42;991.16;;;11.03;33.15
45071;BME280;30836;48.906;9.140;2023-04-05T01:49:42;991.14;;;11.02;33.14
45071;BME280;30836;48.906;9.140;2023-04-05T01:50:43;991.12;;;11.00;33.24
45071;BME280;30836;48.906;9.140;2023-04-05T01:51:43;991.10;;;10.99;33.29
45071;BME280;30836;48.906;9.140;2023-04-05T01:52:43;991.08;;;10.97;33.35
45071;BME280;30836;48.906;9.140;2023-04-05T01:53:44;991.10;;;10.96;33.37
45071;BME280;30836;48.906;9.140;2023-04-05T01:54:44;991.08;;;10.94;33.36
45071;BME280;30836;48.906;9.140;2023-04-05T01:55:45;991.06;;;10.93;33.36
45071;BME280;30836;48.906;9.140;2023-04-05T01:56:45;991.08;;;10.92;33.38
45071;BME280;30836;48.906;9.140;2023-04-05T01:57:45;991.04;;;10.91;33.37
45071;BME280;30836;48.906;9.140;2023-04-05T01:58:46;991.06;;;10.90;33.42
45071;BME280;30836;48.906;9.140;2023-04-05T01:59:46;991.04;;;10.89;33.36
45071;BME280;30836;48.906;9.140;2023-04-05T02:00:47;991.06;;;10.88;33.29
45071;BME280;30836;48.906;9.140;2023-04-05T02:01:47;991.06;;;10.88;33.20
45071;BME280;30836;48.906;9.140;2023-04-05T02:02:47;991.02;;;10.86;33.23
45071;BME280;30836;48.906;9.140;2023-04-05T02:03:48;991.00;;;10.78;33.63
45071;BME280;30836;48.906;9.140;2023-04-05T02:04:48;991.00;;;10.60;34.19
45071;BME280;30836;48.906;9.140;2023-04-05T02:05:49;990.98;;;10.39;34.65
45071;BME280;30836;48.906;9.140;2023-04-05T02:06:49;991.00;;;10.20;34.89
45071;BME280;30836;48.906;9.140;2023-04-05T02:07:50;990.96;;;10.03;35.08
45071;BME280;30836;48.906;9.140;2023-04-05T02:08:50;990.98;;;9.88;35.21
45071;BME280;30836;48.906;9.140;2023-04-05T02:09:51;990.98;;;9.77;35.34
45071;BME280;30836;48.906;9.140;2023-04-05T02:10:52;990.96;;;9.68;35.49
45071;BME280;30836;48.906;9.140;2023-04-05T02:11:53;990.96;;;9.60;35.61
45071;BME280;30836;48.906;9.140;2023-04-05T02:12:53;990.96;;;9.54;35.65
45071;BME280;30836;48.906;9.140;2023-04-05T02:13:53;990.98;;;9.49;35.74
45071;BME280;30836;48.906;9.140;2023-04-05T02:14:54;990.98;;;9.45;35.85
45071;BME280;30836;48.906;9.140;2023-04-05T02:15:54;990.96;;;9.40;35.80
45071;BME280;30836;48.906;9.140;2023-04-05T02:16:55;990.96;;;9.37;35.76
45071;BME280;30836;48.906;9.140;2023-04-05T02:17:05;990.96;;;9.30;35.74
45071;BME280;30836;48.906;9.140;2023-04-05T02:18:05;990.96;;;9.31;35.78
45071;BME280;30836;48.906;9.140;2023-04-05T02:19:06;990.94;;;9.32;35.94
45071;BME280;30836;48.906;9.140;2023-04-05T02:20:06;990.96;;;9.30;36.11
45071;BME280;30836;48.906;9.140;2023-04-05T02:21:08;990.94;;;9.29;36.15
45071;BME280;30836;48.906;9.140;2023-04-05T02:22:08;990.94;;;9.31;36.06
45071;BME280;30836;48.906;9.140;2023-04-05T02:23:09;990.94;;;9.30;36.09
45071;BME280;30836;48.906;9.140;2023-04-05T02:24:10;990.91;;;9.28;36.10
45071;BME280;30836;48.906;9.140;2023-04-05T02:25:10;990.91;;;9.26;36.08
45071;BME280;30836;48.906;9.140;2023-04-05T02:26:10;990.91;;;9.23;36.07
45071;BME280;30836;48.906;9.140;2023-04-05T02:27:11;990.89;;;9.22;36.07
45071;BME280;30836;48.906;9.140;2023-04-05T02:28:11;990.89;;;9.19;35.99
45071;BME280;30836;48.906;9.140;2023-04-05T02:29:12;990.85;;;9.17;35.95
45071;BME280;30836;48.906;9.140;2023-04-05T02:30:13;990.83;;;9.15;35.99
45071;BME280;30836;48.906;9.140;2023-04-05T02:31:13;990.85;;;9.13;36.10
45071;BME280;30836;48.906;9.140;2023-04-05T02:32:14;990.85;;;9.10;36.34
45071;BME280;30836;48.906;9.140;2023-04-05T02:33:14;990.87;;;9.08;36.41
45071;BME280;30836;48.906;9.140;2023-04-05T02:34:15;990.87;;;9.06;36.39
45071;BME280;30836;48.906;9.140;2023-04-05T02:35:15;990.89;;;9.04;36.40
45071;BME280;30836;48.906;9.140;2023-04-05T02:36:16;990.89;;;9.02;36.35
45071;BME280;30836;48.906;9.140;2023-04-05T02:37:17;990.85;;;9.01;36.38
45071;BME280;30836;48.906;9.140;2023-04-05T02:38:18;990.89;;;9.01;36.37
45071;BME280;30836;48.906;9.140;2023-04-05T02:39:19;990.87;;;9.09;36.12
45071;BME280;30836;48.906;9.140;2023-04-05T02:40:19;990.85;;;9.25;35.81
45071;BME280;30836;48.906;9.140;2023-04-05T02:41:20;990.87;;;9.41;35.50
45071;BME280;30836;48.906;9.140;2023-04-05T02:42:20;990.87;;;9.57;35.26
45071;BME280;30836;48.906;9.140;2023-04-05T02:43:21;990.87;;;9.70;35.02
45071;BME280;30836;48.906;9.140;2023-04-05T02:44:21;990.87;;;9.81;34.80
45071;BME280;30836;48.906;9.140;2023-04-05T02:45:22;990.87;;;9.90;34.60
45071;BME280;30836;48.906;9.140;2023-04-05T02:46:22;990.87;;;9.98;34.48
45071;BME280;30836;48.906;9.140;2023-04-05T02:47:23;990.87;;;10.04;34.37
45071;BME280;30836;48.906;9.140;2023-04-05T02:48:23;990.89;;;10.07;34.27
45071;BME280;30836;48.906;9.140;2023-04-05T02:49:23;990.89;;;10.11;34.19
45071;BME280;30836;48.906;9.140;2023-04-05T02:50:24;990.89;;;10.14;34.12
45071;BME280;30836;48.906;9.140;2023-04-05T02:51:24;990.89;;;10.17;34.05
45071;BME280;30836;48.906;9.140;2023-04-05T02:52:25;990.89;;;10.19;34.05
45071;BME280;30836;48.906;9.140;2023-04-05T02:53:25;990.91;;;10.20;34.04
45071;BME280;30836;48.906;9.140;2023-04-05T02:54:26;990.89;;;10.21;33.98
45071;BME280;30836;48.906;9.140;2023-04-05T02:55:26;990.85;;;10.19;33.96
45071;BME280;30836;48.906;9.140;2023-04-05T02:56:26;990.85;;;10.08;34.27
45071;BME280;30836;48.906;9.140;2023-04-05T02:57:27;990.87;;;9.91;34.62
45071;BME280;30836;48.906;9.140;2023-04-05T02:58:27;990.83;;;9.73;34.92
45071;BME280;30836;48.906;9.140;2023-04-05T02:59:28;990.81;;;9.58;35.14
45071;BME280;30836;48.906;9.140;2023-04-05T03:00:28;990.81;;;9.46;35.32
45071;BME280;30836;48.906;9.140;2023-04-05T03:01:29;990.83;;;9.36;35.51
45071;BME280;30836;48.906;9.140;2023-04-05T03:02:29;990.83;;;9.27;35.73
45071;BME280;30836;48.906;9.140;2023-04-05T03:03:30;990.85;;;9.20;35.87
45071;BME280;30836;48.906;9.140;2023-04-05T03:04:30;990.83;;;9.15;35.99
45071;BME280;30836;48.906;9.140;2023-04-05T03:05:31;990.85;;;9.10;36.01
45071;BME280;30836;48.906;9.140;2023-04-05T03:06:31;990.85;;;9.05;36.07
45071;BME280;30836;48.906;9.140;2023-04-05T03:07:31;990.81;;;9.02;36.10
45071;BME280;30836;48.906;9.140;2023-04-05T03:08:32;990.79;;;8.98;36.13
45071;BME280;30836;48.906;9.140;2023-04-05T03:09:32;990.79;;;8.95;36.30
45071;BME280;30836;48.906;9.140;2023-04-05T03:10:34;990.77;;;8.91;36.46
45071;BME280;30836;48.906;9.140;2023-04-05T03:11:35;990.75;;;8.88;36.56
45071;BME280;30836;48.906;9.140;2023-04-05T03:12:35;990.77;;;8.85;36.64
45071;BME280;30836;48.906;9.140;2023-04-05T03:13:36;990.75;;;8.82;36.62
45071;BME280;30836;48.906;9.140;2023-04-05T03:14:36;990.75;;;8.80;36.62
45071;BME280;30836;48.906;9.140;2023-04-05T03:15:37;990.77;;;8.77;36.74
45071;BME280;30836;48.906;9.140;2023-04-05T03:16:37;990.71;;;8.75;36.86
45071;BME280;30836;48.906;9.140;2023-04-05T03:17:38;990.71;;;8.72;36.90
45071;BME280;30836;48.906;9.140;2023-04-05T03:18:38;990.71;;;8.69;36.96
45071;BME280;30836;48.906;9.140;2023-04-05T03:19:39;990.73;;;8.67;37.00
45071;BME280;30836;48.906;9.140;2023-04-05T03:20:39;990.69;;;8.64;37.09
45071;BME280;30836;48.906;9.140;2023-04-05T03:21:40;990.73;;;8.62;37.08
45071;BME280;30836;48.906;9.140;2023-04-05T03:22:40;990.69;;;8.61;37.08
45071;BME280;30836;48.906;9.140;2023-04-05T03:23:41;990.67;;;8.61;37.07
45071;BME280;30836;48.906;9.140;2023-04-05T03:24:41;990.69;;;8.60;37.10
45071;BME280;30836;48.906;9.140;2023-04-05T03:25:41;990.69;;;8.60;37.07
45071;BME280;30836;48.906;9.140;2023-04-05T03:26:42;990.71;;;8.59;37.08
45071;BME280;30836;48.906;9.140;2023-04-05T03:27:45;990.71;;;8.60;37.08
45071;BME280;30836;48.906;9.140;2023-04-05T03:28:45;990.71;;;8.60;37.14
45071;BME280;30836;48.906;9.140;2023-04-05T03:29:45;990.71;;;8.59;37.28
45071;BME280;30836;48.906;9.140;2023-04-05T03:30:46;990.73;;;8.58;37.40
45071;BME280;30836;48.906;9.140;2023-04-05T03:31:47;990.71;;;8.57;37.44
45071;BME280;30836;48.906;9.140;2023-04-05T03:32:49;990.71;;;8.56;37.42
45071;BME280;30836;48.906;9.140;2023-04-05T03:33:49;990.73;;;8.56;37.43
45071;BME280;30836;48.906;9.140;2023-04-05T03:34:49;990.73;;;8.55;37.45
45071;BME280;30836;48.906;9.140;2023-04-05T03:35:50;990.75;;;8.54;37.49
45071;BME280;30836;48.906;9.140;2023-04-05T03:36:00;990.75;;;8.52;37.49
45071;BME280;30836;48.906;9.140;2023-04-05T03:37:00;990.77;;;8.54;37.47
45071;BME280;30836;48.906;9.140;2023-04-05T03:38:01;990.75;;;8.55;37.44
45071;BME280;30836;48.906;9.140;2023-04-05T03:39:01;990.75;;;8.55;37.39
45071;BME280;30836;48.906;9.140;2023-04-05T03:40:01;990.73;;;8.53;37.33
45071;BME280;30836;48.906;9.140;2023-04-05T03:41:02;990.71;;;8.51;37.29
45071;BME280;30836;48.906;9.140;2023-04-05T03:42:02;990.69;;;8.50;37.42
45071;BME280;30836;48.906;9.140;2023-04-05T03:43:03;990.73;;;8.49;37.56
45071;BME280;30836;48.906;9.140;2023-04-05T03:44:03;990.69;;;8.47;37.66
45071;BME280;30836;48.906;9.140;2023-04-05T03:45:05;990.69;;;8.46;37.74
45071;BME280;30836;48.906;9.140;2023-04-05T03:46:05;990.71;;;8.47;37.80
45071;BME280;30836;48.906;9.140;2023-04-05T03:47:06;990.71;;;8.56;37.55
45071;BME280;30836;48.906;9.140;2023-04-05T03:48:06;990.69;;;8.71;37.35
45071;BME280;30836;48.906;9.140;2023-04-05T03:49:07;990.69;;;8.86;37.06
45071;BME280;30836;48.906;9.140;2023-04-05T03:50:07;990.73;;;9.00;36.82
45071;BME280;30836;48.906;9.140;2023-04-05T03:51:08;990.71;;;9.11;36.45
45071;BME280;30836;48.906;9.140;2023-04-05T03:52:08;990.73;;;9.19;36.09
45071;BME280;30836;48.906;9.140;2023-04-05T03:53:09;990.75;;;9.25;35.85
45071;BME280;30836;48.906;9.140;2023-04-05T03:54:09;990.75;;;9.31;35.59
45071;BME280;30836;48.906;9.140;2023-04-05T03:55:10;990.75;;;9.36;35.28
45071;BME280;30836;48.906;9.140;2023-04-05T03:56:10;990.79;;;9.39;35.05
45071;BME280;30836;48.906;9.140;2023-04-05T03:57:11;990.79;;;9.42;35.04
45071;BME280;30836;48.906;9.140;2023-04-05T03:58:11;990.79;;;9.43;35.32
45071;BME280;30836;48.906;9.140;2023-04-05T03:59:12;990.77;;;9.44;35.34
45071;BME280;30836;48.906;9.140;2023-04-05T04:00:12;990.77;;;9.45;35.37
45071;BME280;30836;48.906;9.140;2023-04-05T04:01:13;990.77;;;9.45;35.42
45071;BME280;30836;48.906;9.140;2023-04-05T04:02:14;990.75;;;9.45;35.42
45071;BME280;30836;48.906;9.140;2023-04-05T04:03:14;990.75;;;9.44;35.35
45071;BME280;30836;48.906;9.140;2023-04-05T04:04:15;990.73;;;9.43;35.29
45071;BME280;30836;48.906;9.140;2023-04-05T04:05:15;990.77;;;9.43;35.24
45071;BME280;30836;48.906;9.140;2023-04-05T04:06:16;990.77;;;9.43;35.26
45071;BME280;30836;48.906;9.140;2023-04-05T04:07:16;990.75;;;9.41;35.33
45071;BME280;30836;48.906;9.140;2023-04-05T04:08:17;990.75;;;9.33;35.69
45071;BME280;30836;48.906;9.140;2023-04-05T04:09:17;990.75;;;9.17;36.00
45071;BME280;30836;48.906;9.140;2023-04-05T04:10:18;990.77;;;9.00;36.39
45071;BME280;30836;48.906;9.140;2023-04-05T04:11:18;990.77;;;8.85;36.68
45071;BME280;30836;48.906;9.140;2023-04-05T04:12:18;990.77;;;8.72;36.93
45071;BME280;30836;48.906;9.140;2023-04-05T04:13:19;990.77;;;8.61;37.19
45071;BME280;30836;48.906;9.140;2023-04-05T04:14:19;990.77;;;8.53;37.39
45071;BME280;30836;48.906;9.140;2023-04-05T04:15:20;990.75;;;8.46;37.42
45071;BME280;30836;48.906;9.140;2023-04-05T04:16:20;990.75;;;8.40;37.53
45071;BME280;30836;48.906;9.140;2023-04-05T04:18:26;990.79;;;8.30;37.95
45071;BME280;30836;48.906;9.140;2023-04-05T04:19:27;990.81;;;8.25;38.02
45071;BME280;30836;48.906;9.140;2023-04-05T04:20:27;990.79;;;8.20;38.03
45071;BME280;30836;48.906;9.140;2023-04-05T04:21:27;990.79;;;8.16;38.10
45071;BME280;30836;48.906;9.140;2023-04-05T04:22:28;990.81;;;8.12;38.34
45071;BME280;30836;48.906;9.140;2023-04-05T04:23:28;990.77;;;8.07;38.43
45071;BME280;30836;48.906;9.140;2023-04-05T04:24:29;990.75;;;8.04;38.41
45071;BME280;30836;48.906;9.140;2023-04-05T04:25:29;990.75;;;8.03;38.46
45071;BME280;30836;48.906;9.140;2023-04-05T04:26:30;990.75;;;8.02;38.51
45071;BME280;30836;48.906;9.140;2023-04-05T04:27:30;990.73;;;8.00;38.58
45071;BME280;30836;48.906;9.140;2023-04-05T04:28:31;990.73;;;7.99;38.63
45071;BME280;30836;48.906;9.140;2023-04-05T04:29:34;990.73;;;7.97;38.67
45071;BME280;30836;48.906;9.140;2023-04-05T04:30:35;990.73;;;7.98;38.70
45071;BME280;30836;48.906;9.140;2023-04-05T04:31:36;990.73;;;8.07;38.42
45071;BME280;30836;48.906;9.140;2023-04-05T04:32:37;990.69;;;8.19;38.20
45071;BME280;30836;48.906;9.140;2023-04-05T04:32:48;990.69;;;8.27;38.22
45071;BME280;30836;48.906;9.140;2023-04-05T04:33:49;990.69;;;8.28;38.23
45071;BME280;30836;48.906;9.140;2023-04-05T04:34:49;990.67;;;8.27;38.31
45071;BME280;30836;48.906;9.140;2023-04-05T04:35:49;990.67;;;8.23;38.37
45071;BME280;30836;48.906;9.140;2023-04-05T04:36:50;990.69;;;8.19;38.45
45071;BME280;30836;48.906;9.140;2023-04-05T04:37:52;990.69;;;8.15;38.48
45071;BME280;30836;48.906;9.140;2023-04-05T04:38:58;990.71;;;8.11;38.51
45071;BME280;30836;48.906;9.140;2023-04-05T04:39:59;990.67;;;8.07;38.36
45071;BME280;30836;48.906;9.140;2023-04-05T04:40:59;990.65;;;8.04;38.37
45071;BME280;30836;48.906;9.140;2023-04-05T04:41:59;990.67;;;8.00;38.47
45071;BME280;30836;48.906;9.140;2023-04-05T04:43:00;990.65;;;7.97;38.53
45071;BME280;30836;48.906;9.140;2023-04-05T04:44:00;990.63;;;7.94;38.71
45071;BME280;30836;48.906;9.140;2023-04-05T04:45:01;990.63;;;7.90;38.83
45071;BME280;30836;48.906;9.140;2023-04-05T04:46:01;990.63;;;7.88;38.86
45071;BME280;30836;48.906;9.140;2023-04-05T04:47:02;990.63;;;7.86;38.94
45071;BME280;30836;48.906;9.140;2023-04-05T04:48:03;990.63;;;7.84;38.97
45071;BME280;30836;48.906;9.140;2023-04-05T04:49:03;990.67;;;7.85;38.92
45071;BME280;30836;48.906;9.140;2023-04-05T04:50:04;990.67;;;7.93;38.55
45071;BME280;30836;48.906;9.140;2023-04-05T04:51:05;990.67;;;8.07;38.10
45071;BME280;30836;48.906;9.140;2023-04-05T04:52:05;990.65;;;8.22;37.84
45071;BME280;30836;48.906;9.140;2023-04-05T04:53:05;990.67;;;8.36;37.67
45071;BME280;30836;48.906;9.140;2023-04-05T04:54:06;990.69;;;8.48;37.57
45071;BME280;30836;48.906;9.140;2023-04-05T04:55:07;990.73;;;8.58;37.34
45071;BME280;30836;48.906;9.140;2023-04-05T04:56:08;990.71;;;8.66;37.11
45071;BME280;30836;48.906;9.140;2023-04-05T04:57:09;990.75;;;8.73;36.93
45071;BME280;30836;48.906;9.140;2023-04-05T04:58:10;990.75;;;8.79;36.67
45071;BME280;30836;48.906;9.140;2023-04-05T04:59:11;990.77;;;8.83;36.55
45071;BME280;30836;48.906;9.140;2023-04-05T05:00:11;990.77;;;8.85;36.49
45071;BME280;30836;48.906;9.140;2023-04-05T05:01:12;990.77;;;8.78;36.60
45071;BME280;30836;48.906;9.140;2023-04-05T05:02:13;990.77;;;8.64;37.00
45071;BME280;30836;48.906;9.140;2023-04-05T05:03:13;990.81;;;8.49;37.38
45071;BME280;30836;48.906;9.140;2023-04-05T05:04:14;990.81;;;8.35;37.70
45071;BME280;30836;48.906;9.140;2023-04-05T05:05:14;990.81;;;8.22;38.04
45071;BME280;30836;48.906;9.140;2023-04-05T05:06:18;990.81;;;8.12;38.54
45071;BME280;30836;48.906;9.140;2023-04-05T05:07:18;990.83;;;8.03;38.85
45071;BME280;30836;48.906;9.140;2023-04-05T05:08:19;990.83;;;7.95;39.19
45071;BME280;30836;48.906;9.140;2023-04-05T05:09:19;990.83;;;7.89;39.30
45071;BME280;30836;48.906;9.140;2023-04-05T05:10:20;990.83;;;7.85;39.48
45071;BME280;30836;48.906;9.140;2023-04-05T05:11:20;990.83;;;7.81;39.63
45071;BME280;30836;48.906;9.140;2023-04-05T05:12:21;990.87;;;7.78;39.75
45071;BME280;30836;48.906;9.140;2023-04-05T05:13:21;990.87;;;7.75;39.81
45071;BME280;30836;48.906;9.140;2023-04-05T05:14:22;990.89;;;7.72;39.91
45071;BME280;30836;48.906;9.140;2023-04-05T05:15:22;990.89;;;7.67;39.99
45071;BME280;30836;48.906;9.140;2023-04-05T05:16:22;990.91;;;7.64;39.97
45071;BME280;30836;48.906;9.140;2023-04-05T05:17:23;990.91;;;7.63;40.02
45071;BME280;30836;48.906;9.140;2023-04-05T05:18:23;990.91;;;7.63;40.04
45071;BME280;30836;48.906;9.140;2023-04-05T05:19:24;990.91;;;7.63;40.08
45071;BME280;30836;48.906;9.140;2023-04-05T05:20:25;990.89;;;7.64;40.06
45071;BME280;30836;48.906;9.140;2023-04-05T05:21:25;990.91;;;7.64;39.98
45071;BME280;30836;48.906;9.140;2023-04-05T05:22:26;990.91;;;7.66;39.98
45071;BME280;30836;48.906;9.140;2023-04-05T05:23:27;990.87;;;7.71;39.88
45071;BME280;30836;48.906;9.140;2023-04-05T05:24:27;990.91;;;7.85;39.55
45071;BME280;30836;48.906;9.140;2023-04-05T05:25:28;990.91;;;8.04;39.23
45071;BME280;30836;48.906;9.140;2023-04-05T05:26:28;990.89;;;8.24;38.90
45071;BME280;30836;48.906;9.140;2023-04-05T05:27:28;990.89;;;8.43;38.58
45071;BME280;30836;48.906;9.140;2023-04-05T05:28:29;990.89;;;8.59;38.29
45071;BME280;30836;48.906;9.140;2023-04-05T05:29:29;990.89;;;8.73;38.07
45071;BME280;30836;48.906;9.140;2023-04-05T05:30:30;990.91;;;8.85;37.83
45071;BME280;30836;48.906;9.140;2023-04-05T05:31:30;990.91;;;8.94;37.68
45071;BME280;30836;48.906;9.140;2023-04-05T05:32:31;990.91;;;9.03;37.61
45071;BME280;30836;48.906;9.140;2023-04-05T05:33:31;990.91;;;9.09;37.58
45071;BME280;30836;48.906;9.140;2023-04-05T05:34:32;990.91;;;9.14;37.50
45071;BME280;30836;48.906;9.140;2023-04-05T05:35:32;990.91;;;9.18;37.42
45071;BME280;30836;48.906;9.140;2023-04-05T05:36:33;990.91;;;9.22;37.35
45071;BME280;30836;48.906;9.140;2023-04-05T05:37:34;990.91;;;9.26;37.28
45071;BME280;30836;48.906;9.140;2023-04-05T05:38:34;990.91;;;9.30;37.22
45071;BME280;30836;48.906;9.140;2023-04-05T05:39:35;990.89;;;9.34;37.15
45071;BME280;30836;48.906;9.140;2023-04-05T05:40:35;990.93;;;9.38;37.05
45071;BME280;30836;48.906;9.140;2023-04-05T05:41:36;990.91;;;9.43;36.96
45071;BME280;30836;48.906;9.140;2023-04-05T05:42:36;990.91;;;9.44;36.94
45071;BME280;30836;48.906;9.140;2023-04-05T05:43:36;990.91;;;9.36;37.19
45071;BME280;30836;48.906;9.140;2023-04-05T05:44:37;990.85;;;9.22;37.54
45071;BME280;30836;48.906;9.140;2023-04-05T05:45:38;990.89;;;9.08;37.75
45071;BME280;30836;48.906;9.140;2023-04-05T05:46:38;990.87;;;8.96;37.83
45071;BME280;30836;48.906;9.140;2023-04-05T05:47:38;990.85;;;8.86;37.96
45071;BME280;30836;48.906;9.140;2023-04-05T05:48:39;990.81;;;8.78;38.07